sensor_id;sensor_type;location;lat;lon;timestamp;temperature;humidity
19214;DHT22;9741;51.020;5.304;2022-07-23T00:00:46;17.90;59.70
19214;DHT22;9741;51.020;5.304;2022-07-23T00:03:13;17.90;59.80
19214;DHT22;9741;51.020;5.304;2022-07-23T00:05:40;17.80;59.90
19214;DHT22;9741;51.020;5.304;2022-07-23T00:08:09;17.80;59.80
19214;DHT22;9741;51.020;5.304;2022-07-23T00:10:36;17.70;59.80
19214;DHT22;9741;51.020;5.304;2022-07-23T00:13:03;17.70;59.80
19214;DHT22;9741;51.020;5.304;2022-07-23T00:15:31;17.70;59.90
19214;DHT22;9741;51.020;5.304;2022-07-23T00:17:58;17.70;60.00
19214;DHT22;9741;51.020;5.304;2022-07-23T00:20:25;17.60;59.90
19214;DHT22;9741;51.020;5.304;2022-07-23T00:22:54;17.60;59.90
19214;DHT22;9741;51.020;5.304;2022-07-23T00:25:23;17.50;59.90
19214;DHT22;9741;51.020;5.304;2022-07-23T00:27:50;17.50;60.00
19214;DHT22;9741;51.020;5.304;2022-07-23T00:30:17;17.40;59.90
19214;DHT22;9741;51.020;5.304;2022-07-23T00:32:46;17.40;59.90
19214;DHT22;9741;51.020;5.304;2022-07-23T00:35:13;17.30;59.80
19214;DHT22;9741;51.020;5.304;2022-07-23T00:37:41;17.30;59.90
19214;DHT22;9741;51.020;5.304;2022-07-23T00:40:09;17.20;59.90
19214;DHT22;9741;51.020;5.304;2022-07-23T00:42:38;17.20;60.00
19214;DHT22;9741;51.020;5.304;2022-07-23T00:45:07;17.20;60.00
19214;DHT22;9741;51.020;5.304;2022-07-23T00:47:34;17.10;60.00
19214;DHT22;9741;51.020;5.304;2022-07-23T00:50:02;17.10;60.10
19214;DHT22;9741;51.020;5.304;2022-07-23T00:52:29;17.10;60.10
19214;DHT22;9741;51.020;5.304;2022-07-23T00:54:57;17.00;60.10
19214;DHT22;9741;51.020;5.304;2022-07-23T00:57:24;17.00;60.10
19214;DHT22;9741;51.020;5.304;2022-07-23T00:59:52;16.90;60.00
19214;DHT22;9741;51.020;5.304;2022-07-23T01:02:19;16.90;60.10
19214;DHT22;9741;51.020;5.304;2022-07-23T01:04:47;16.80;60.10
19214;DHT22;9741;51.020;5.304;2022-07-23T01:07:14;16.80;60.10
19214;DHT22;9741;51.020;5.304;2022-07-23T01:09:42;16.80;60.20
19214;DHT22;9741;51.020;5.304;2022-07-23T01:12:09;16.70;60.10
19214;DHT22;9741;51.020;5.304;2022-07-23T01:14:37;16.70;60.20
19214;DHT22;9741;51.020;5.304;2022-07-23T01:17:05;16.70;60.30
19214;DHT22;9741;51.020;5.304;2022-07-23T01:19:32;16.60;60.30
19214;DHT22;9741;51.020;5.304;2022-07-23T01:22:02;16.60;60.80
19214;DHT22;9741;51.020;5.304;2022-07-23T01:24:31;16.60;60.40
19214;DHT22;9741;51.020;5.304;2022-07-23T01:26:58;16.60;60.40
19214;DHT22;9741;51.020;5.304;2022-07-23T01:29:25;16.60;60.50
19214;DHT22;9741;51.020;5.304;2022-07-23T01:31:52;16.50;60.40
19214;DHT22;9741;51.020;5.304;2022-07-23T01:34:19;16.60;60.60
19214;DHT22;9741;51.020;5.304;2022-07-23T01:36:46;16.50;60.50
19214;DHT22;9741;51.020;5.304;2022-07-23T01:39:13;16.50;60.60
19214;DHT22;9741;51.020;5.304;2022-07-23T01:41:42;16.50;60.60
19214;DHT22;9741;51.020;5.304;2022-07-23T01:44:09;16.50;60.60
19214;DHT22;9741;51.020;5.304;2022-07-23T01:46:37;16.40;60.50
19214;DHT22;9741;51.020;5.304;2022-07-23T01:49:05;16.40;60.60
19214;DHT22;9741;51.020;5.304;2022-07-23T01:51:32;16.40;60.60
19214;DHT22;9741;51.020;5.304;2022-07-23T01:53:59;16.40;60.60
19214;DHT22;9741;51.020;5.304;2022-07-23T01:56:26;16.40;60.60
19214;DHT22;9741;51.020;5.304;2022-07-23T01:58:54;16.30;60.50
19214;DHT22;9741;51.020;5.304;2022-07-23T02:01:21;16.30;61.10
19214;DHT22;9741;51.020;5.304;2022-07-23T02:03:48;16.30;60.60
19214;DHT22;9741;51.020;5.304;2022-07-23T02:06:15;16.30;60.60
19214;DHT22;9741;51.020;5.304;2022-07-23T02:08:42;16.20;60.50
19214;DHT22;9741;51.020;5.304;2022-07-23T02:11:10;16.20;60.50
19214;DHT22;9741;51.020;5.304;2022-07-23T02:13:37;16.20;60.60
19214;DHT22;9741;51.020;5.304;2022-07-23T02:16:06;16.20;60.70
19214;DHT22;9741;51.020;5.304;2022-07-23T02:18:33;16.10;60.60
19214;DHT22;9741;51.020;5.304;2022-07-23T02:21:00;16.10;60.70
19214;DHT22;9741;51.020;5.304;2022-07-23T02:23:27;16.10;60.70
19214;DHT22;9741;51.020;5.304;2022-07-23T02:25:54;16.10;60.70
19214;DHT22;9741;51.020;5.304;2022-07-23T02:28:21;16.10;60.70
19214;DHT22;9741;51.020;5.304;2022-07-23T02:30:48;16.10;60.70
19214;DHT22;9741;51.020;5.304;2022-07-23T02:33:16;16.00;60.60
19214;DHT22;9741;51.020;5.304;2022-07-23T02:35:44;16.00;60.70
19214;DHT22;9741;51.020;5.304;2022-07-23T02:38:11;15.90;60.60
19214;DHT22;9741;51.020;5.304;2022-07-23T02:40:38;15.90;60.60
19214;DHT22;9741;51.020;5.304;2022-07-23T02:43:05;15.90;60.70
19214;DHT22;9741;51.020;5.304;2022-07-23T02:45:32;15.90;60.70
19214;DHT22;9741;51.020;5.304;2022-07-23T02:47:59;15.90;60.70
19214;DHT22;9741;51.020;5.304;2022-07-23T02:50:28;15.90;60.80
19214;DHT22;9741;51.020;5.304;2022-07-23T02:52:55;15.80;60.70
19214;DHT22;9741;51.020;5.304;2022-07-23T02:55:22;15.80;60.70
19214;DHT22;9741;51.020;5.304;2022-07-23T02:57:49;15.80;60.70
19214;DHT22;9741;51.020;5.304;2022-07-23T03:00:16;15.70;60.70
19214;DHT22;9741;51.020;5.304;2022-07-23T03:02:43;15.70;60.70
19214;DHT22;9741;51.020;5.304;2022-07-23T03:05:10;15.70;60.70
19214;DHT22;9741;51.020;5.304;2022-07-23T03:07:39;15.60;60.60
19214;DHT22;9741;51.020;5.304;2022-07-23T03:10:06;15.60;60.70
19214;DHT22;9741;51.020;5.304;2022-07-23T03:12:33;15.60;60.70
19214;DHT22;9741;51.020;5.304;2022-07-23T03:15:01;15.60;60.80
19214;DHT22;9741;51.020;5.304;2022-07-23T03:17:28;15.50;60.70
19214;DHT22;9741;51.020;5.304;2022-07-23T03:19:55;15.50;60.70
19214;DHT22;9741;51.020;5.304;2022-07-23T03:22:22;15.50;60.80
19214;DHT22;9741;51.020;5.304;2022-07-23T03:24:50;15.50;60.80
19214;DHT22;9741;51.020;5.304;2022-07-23T03:27:21;15.40;60.70
19214;DHT22;9741;51.020;5.304;2022-07-23T03:29:48;15.40;60.70
19214;DHT22;9741;51.020;5.304;2022-07-23T03:32:15;15.40;60.70
19214;DHT22;9741;51.020;5.304;2022-07-23T03:34:42;15.40;60.70
19214;DHT22;9741;51.020;5.304;2022-07-23T03:37:10;15.30;60.70
19214;DHT22;9741;51.020;5.304;2022-07-23T03:39:37;15.30;60.70
19214;DHT22;9741;51.020;5.304;2022-07-23T03:42:06;15.30;60.70
19214;DHT22;9741;51.020;5.304;2022-07-23T03:44:33;15.30;60.70
19214;DHT22;9741;51.020;5.304;2022-07-23T03:47:02;15.20;60.70
19214;DHT22;9741;51.020;5.304;2022-07-23T03:49:29;15.20;60.70
19214;DHT22;9741;51.020;5.304;2022-07-23T03:51:56;15.20;60.70
19214;DHT22;9741;51.020;5.304;2022-07-23T03:54:23;15.20;60.70
19214;DHT22;9741;51.020;5.304;2022-07-23T03:56:51;15.10;60.60
19214;DHT22;9741;51.020;5.304;2022-07-23T03:59:19;15.10;60.70
19214;DHT22;9741;51.020;5.304;2022-07-23T04:01:46;15.10;60.70
19214;DHT22;9741;51.020;5.304;2022-07-23T04:04:13;15.10;60.70
19214;DHT22;9741;51.020;5.304;2022-07-23T04:06:40;15.00;60.60
19214;DHT22;9741;51.020;5.304;2022-07-23T04:09:07;15.00;60.60
19214;DHT22;9741;51.020;5.304;2022-07-23T04:11:34;15.00;60.70
19214;DHT22;9741;51.020;5.304;2022-07-23T04:14:01;15.00;60.70
19214;DHT22;9741;51.020;5.304;2022-07-23T04:16:30;15.00;60.80
19214;DHT22;9741;51.020;5.304;2022-07-23T04:18:57;15.00;60.80
19214;DHT22;9741;51.020;5.304;2022-07-23T04:21:24;15.00;60.80
19214;DHT22;9741;51.020;5.304;2022-07-23T04:23:51;15.10;60.90
19214;DHT22;9741;51.020;5.304;2022-07-23T04:26:18;15.10;60.90
19214;DHT22;9741;51.020;5.304;2022-07-23T04:28:46;15.10;60.90
19214;DHT22;9741;51.020;5.304;2022-07-23T04:31:14;15.10;60.90
19214;DHT22;9741;51.020;5.304;2022-07-23T04:33:42;15.10;61.00
19214;DHT22;9741;51.020;5.304;2022-07-23T04:36:09;15.20;61.10
19214;DHT22;9741;51.020;5.304;2022-07-23T04:38:36;15.20;61.00
19214;DHT22;9741;51.020;5.304;2022-07-23T04:41:03;15.30;61.10
19214;DHT22;9741;51.020;5.304;2022-07-23T04:43:31;15.30;61.10
19214;DHT22;9741;51.020;5.304;2022-07-23T04:45:58;15.30;61.10
19214;DHT22;9741;51.020;5.304;2022-07-23T04:48:25;15.40;61.20
19214;DHT22;9741;51.020;5.304;2022-07-23T04:50:53;15.40;61.20
19214;DHT22;9741;51.020;5.304;2022-07-23T04:53:20;15.50;61.30
19214;DHT22;9741;51.020;5.304;2022-07-23T04:55:47;15.60;61.40
19214;DHT22;9741;51.020;5.304;2022-07-23T04:58:14;15.70;61.50
19214;DHT22;9741;51.020;5.304;2022-07-23T05:00:41;15.80;61.60
19214;DHT22;9741;51.020;5.304;2022-07-23T05:03:08;16.00;61.80
19214;DHT22;9741;51.020;5.304;2022-07-23T05:05:36;16.30;61.90
19214;DHT22;9741;51.020;5.304;2022-07-23T05:08:04;16.70;62.00
19214;DHT22;9741;51.020;5.304;2022-07-23T05:10:32;17.10;62.00
19214;DHT22;9741;51.020;5.304;2022-07-23T05:12:59;17.50;61.80
19214;DHT22;9741;51.020;5.304;2022-07-23T05:15:26;17.90;61.40
19214;DHT22;9741;51.020;5.304;2022-07-23T05:17:53;18.20;60.90
19214;DHT22;9741;51.020;5.304;2022-07-23T05:20:20;18.60;60.60
19214;DHT22;9741;51.020;5.304;2022-07-23T05:22:47;18.90;60.30
19214;DHT22;9741;51.020;5.304;2022-07-23T05:25:16;19.30;60.00
19214;DHT22;9741;51.020;5.304;2022-07-23T05:27:43;19.70;59.70
19214;DHT22;9741;51.020;5.304;2022-07-23T05:30:11;20.20;59.40
19214;DHT22;9741;51.020;5.304;2022-07-23T05:32:39;20.60;58.80
19214;DHT22;9741;51.020;5.304;2022-07-23T05:35:07;21.00;58.20
19214;DHT22;9741;51.020;5.304;2022-07-23T05:37:39;21.30;57.70
19214;DHT22;9741;51.020;5.304;2022-07-23T05:40:15;21.70;57.40
19214;DHT22;9741;51.020;5.304;2022-07-23T05:42:45;22.10;57.00
19214;DHT22;9741;51.020;5.304;2022-07-23T05:45:15;22.50;56.50
19214;DHT22;9741;51.020;5.304;2022-07-23T05:47:44;22.90;56.10
19214;DHT22;9741;51.020;5.304;2022-07-23T05:50:14;23.40;55.90
19214;DHT22;9741;51.020;5.304;2022-07-23T05:52:42;23.80;55.60
19214;DHT22;9741;51.020;5.304;2022-07-23T05:55:12;24.30;55.30
19214;DHT22;9741;51.020;5.304;2022-07-23T05:57:39;24.70;55.00
19214;DHT22;9741;51.020;5.304;2022-07-23T06:00:10;25.20;54.80
19214;DHT22;9741;51.020;5.304;2022-07-23T06:02:38;25.50;54.00
19214;DHT22;9741;51.020;5.304;2022-07-23T06:05:06;25.90;53.60
19214;DHT22;9741;51.020;5.304;2022-07-23T06:07:35;26.20;53.10
19214;DHT22;9741;51.020;5.304;2022-07-23T06:10:03;26.50;52.50
19214;DHT22;9741;51.020;5.304;2022-07-23T06:12:30;26.80;52.00
19214;DHT22;9741;51.020;5.304;2022-07-23T06:14:57;27.10;51.40
19214;DHT22;9741;51.020;5.304;2022-07-23T06:17:30;27.40;50.90
19214;DHT22;9741;51.020;5.304;2022-07-23T06:20:02;27.60;50.20
19214;DHT22;9741;51.020;5.304;2022-07-23T06:22:34;28.00;50.00
19214;DHT22;9741;51.020;5.304;2022-07-23T06:25:05;28.20;49.00
19214;DHT22;9741;51.020;5.304;2022-07-23T06:27:33;28.30;48.60
19214;DHT22;9741;51.020;5.304;2022-07-23T06:30:00;28.60;48.20
19214;DHT22;9741;51.020;5.304;2022-07-23T06:32:29;28.90;47.60
19214;DHT22;9741;51.020;5.304;2022-07-23T06:34:56;29.20;47.10
19214;DHT22;9741;51.020;5.304;2022-07-23T06:37:23;29.50;47.00
19214;DHT22;9741;51.020;5.304;2022-07-23T06:39:50;29.90;46.60
19214;DHT22;9741;51.020;5.304;2022-07-23T06:42:17;30.30;46.10
19214;DHT22;9741;51.020;5.304;2022-07-23T06:44:44;30.70;45.70
19214;DHT22;9741;51.020;5.304;2022-07-23T06:47:11;31.10;45.20
19214;DHT22;9741;51.020;5.304;2022-07-23T06:49:40;31.50;44.40
19214;DHT22;9741;51.020;5.304;2022-07-23T06:52:07;32.00;43.90
19214;DHT22;9741;51.020;5.304;2022-07-23T06:54:34;32.30;43.30
19214;DHT22;9741;51.020;5.304;2022-07-23T06:57:02;32.70;42.70
19214;DHT22;9741;51.020;5.304;2022-07-23T06:59:29;33.10;42.20
19214;DHT22;9741;51.020;5.304;2022-07-23T07:01:56;33.40;41.60
19214;DHT22;9741;51.020;5.304;2022-07-23T07:04:24;33.70;41.00
19214;DHT22;9741;51.020;5.304;2022-07-23T07:06:52;33.80;40.70
19214;DHT22;9741;51.020;5.304;2022-07-23T07:09:20;34.00;40.30
19214;DHT22;9741;51.020;5.304;2022-07-23T07:11:47;34.10;39.70
19214;DHT22;9741;51.020;5.304;2022-07-23T07:14:14;34.10;39.30
19214;DHT22;9741;51.020;5.304;2022-07-23T07:16:41;34.20;39.10
19214;DHT22;9741;51.020;5.304;2022-07-23T07:19:08;34.40;38.70
19214;DHT22;9741;51.020;5.304;2022-07-23T07:21:35;34.50;38.30
19214;DHT22;9741;51.020;5.304;2022-07-23T07:24:05;34.70;38.10
19214;DHT22;9741;51.020;5.304;2022-07-23T07:26:32;34.80;37.90
19214;DHT22;9741;51.020;5.304;2022-07-23T07:28:59;34.70;37.50
19214;DHT22;9741;51.020;5.304;2022-07-23T07:31:26;34.60;37.20
19214;DHT22;9741;51.020;5.304;2022-07-23T07:33:53;34.40;37.30
19214;DHT22;9741;51.020;5.304;2022-07-23T07:36:22;34.30;37.20
19214;DHT22;9741;51.020;5.304;2022-07-23T07:38:49;33.90;36.90
19214;DHT22;9741;51.020;5.304;2022-07-23T07:41:18;33.60;37.50
19214;DHT22;9741;51.020;5.304;2022-07-23T07:43:48;33.30;37.40
19214;DHT22;9741;51.020;5.304;2022-07-23T07:46:15;33.00;37.70
19214;DHT22;9741;51.020;5.304;2022-07-23T07:48:42;32.80;38.10
19214;DHT22;9741;51.020;5.304;2022-07-23T07:51:10;32.60;38.40
19214;DHT22;9741;51.020;5.304;2022-07-23T07:53:37;32.50;38.30
19214;DHT22;9741;51.020;5.304;2022-07-23T07:56:04;32.40;38.40
19214;DHT22;9741;51.020;5.304;2022-07-23T07:58:33;32.30;38.40
19214;DHT22;9741;51.020;5.304;2022-07-23T08:01:00;32.00;38.40
19214;DHT22;9741;51.020;5.304;2022-07-23T08:03:28;32.00;38.40
19214;DHT22;9741;51.020;5.304;2022-07-23T08:05:56;32.20;38.50
19214;DHT22;9741;51.020;5.304;2022-07-23T08:08:24;32.20;38.10
19214;DHT22;9741;51.020;5.304;2022-07-23T08:10:52;32.20;38.00
19214;DHT22;9741;51.020;5.304;2022-07-23T08:13:20;32.30;38.00
19214;DHT22;9741;51.020;5.304;2022-07-23T08:15:49;32.20;37.90
19214;DHT22;9741;51.020;5.304;2022-07-23T08:18:20;32.30;38.50
19214;DHT22;9741;51.020;5.304;2022-07-23T08:20:47;32.40;38.10
19214;DHT22;9741;51.020;5.304;2022-07-23T08:23:14;32.60;37.70
19214;DHT22;9741;51.020;5.304;2022-07-23T08:25:44;32.60;37.20
19214;DHT22;9741;51.020;5.304;2022-07-23T08:28:13;32.80;37.00
19214;DHT22;9741;51.020;5.304;2022-07-23T08:30:42;32.90;36.80
19214;DHT22;9741;51.020;5.304;2022-07-23T08:33:12;32.80;36.50
19214;DHT22;9741;51.020;5.304;2022-07-23T08:35:42;32.80;36.40
19214;DHT22;9741;51.020;5.304;2022-07-23T08:38:11;32.70;36.30
19214;DHT22;9741;51.020;5.304;2022-07-23T08:40:40;32.60;36.30
19214;DHT22;9741;51.020;5.304;2022-07-23T08:43:08;32.70;36.30
19214;DHT22;9741;51.020;5.304;2022-07-23T08:45:37;32.60;36.20
19214;DHT22;9741;51.020;5.304;2022-07-23T08:48:13;32.60;36.60
19214;DHT22;9741;51.020;5.304;2022-07-23T08:50:44;32.60;36.50
19214;DHT22;9741;51.020;5.304;2022-07-23T08:53:12;32.80;36.50
19214;DHT22;9741;51.020;5.304;2022-07-23T08:55:40;33.10;36.50
19214;DHT22;9741;51.020;5.304;2022-07-23T08:58:09;33.50;36.20
19214;DHT22;9741;51.020;5.304;2022-07-23T09:00:37;33.90;35.90
19214;DHT22;9741;51.020;5.304;2022-07-23T09:03:04;34.40;35.60
19214;DHT22;9741;51.020;5.304;2022-07-23T09:05:31;34.90;35.00
19214;DHT22;9741;51.020;5.304;2022-07-23T09:08:11;35.30;34.50
19214;DHT22;9741;51.020;5.304;2022-07-23T09:10:49;35.60;34.30
19214;DHT22;9741;51.020;5.304;2022-07-23T09:13:32;35.90;33.90
19214;DHT22;9741;51.020;5.304;2022-07-23T09:16:01;36.10;34.50
19214;DHT22;9741;51.020;5.304;2022-07-23T09:18:34;36.30;33.50
19214;DHT22;9741;51.020;5.304;2022-07-23T09:21:22;36.40;33.40
19214;DHT22;9741;51.020;5.304;2022-07-23T09:23:55;36.60;33.30
19214;DHT22;9741;51.020;5.304;2022-07-23T09:26:34;36.70;32.90
19214;DHT22;9741;51.020;5.304;2022-07-23T09:29:12;36.70;32.70
19214;DHT22;9741;51.020;5.304;2022-07-23T09:31:46;36.50;33.00
19214;DHT22;9741;51.020;5.304;2022-07-23T09:34:19;36.30;33.10
19214;DHT22;9741;51.020;5.304;2022-07-23T09:36:47;36.00;33.40
19214;DHT22;9741;51.020;5.304;2022-07-23T09:39:27;35.60;33.70
19214;DHT22;9741;51.020;5.304;2022-07-23T09:41:55;35.20;33.80
19214;DHT22;9741;51.020;5.304;2022-07-23T09:44:22;34.80;33.60
19214;DHT22;9741;51.020;5.304;2022-07-23T09:46:50;34.40;33.70
19214;DHT22;9741;51.020;5.304;2022-07-23T09:49:20;34.10;34.00
19214;DHT22;9741;51.020;5.304;2022-07-23T09:51:50;33.70;34.30
19214;DHT22;9741;51.020;5.304;2022-07-23T09:54:27;33.50;35.00
19214;DHT22;9741;51.020;5.304;2022-07-23T09:56:57;33.20;35.20
19214;DHT22;9741;51.020;5.304;2022-07-23T09:59:26;33.00;35.30
19214;DHT22;9741;51.020;5.304;2022-07-23T10:01:56;32.80;35.30
19214;DHT22;9741;51.020;5.304;2022-07-23T10:04:26;32.70;35.80
19214;DHT22;9741;51.020;5.304;2022-07-23T10:06:56;32.50;36.00
19214;DHT22;9741;51.020;5.304;2022-07-23T10:09:27;32.50;35.90
19214;DHT22;9741;51.020;5.304;2022-07-23T10:11:59;32.50;35.60
19214;DHT22;9741;51.020;5.304;2022-07-23T10:14:41;32.40;35.40
19214;DHT22;9741;51.020;5.304;2022-07-23T10:17:07;32.40;35.60
19214;DHT22;9741;51.020;5.304;2022-07-23T10:19:35;32.30;35.40
19214;DHT22;9741;51.020;5.304;2022-07-23T10:22:04;32.30;35.20
19214;DHT22;9741;51.020;5.304;2022-07-23T10:24:50;32.20;35.60
19214;DHT22;9741;51.020;5.304;2022-07-23T10:30:10;31.80;35.60
19214;DHT22;9741;51.020;5.304;2022-07-23T10:32:48;31.70;35.70
19214;DHT22;9741;51.020;5.304;2022-07-23T10:35:24;31.70;35.90
19214;DHT22;9741;51.020;5.304;2022-07-23T10:37:56;31.60;35.60
19214;DHT22;9741;51.020;5.304;2022-07-23T10:40:25;31.50;36.00
19214;DHT22;9741;51.020;5.304;2022-07-23T10:42:58;31.40;36.40
19214;DHT22;9741;51.020;5.304;2022-07-23T10:45:32;31.30;36.20
19214;DHT22;9741;51.020;5.304;2022-07-23T10:48:16;31.20;35.80
19214;DHT22;9741;51.020;5.304;2022-07-23T10:50:44;31.00;36.00
19214;DHT22;9741;51.020;5.304;2022-07-23T10:53:53;30.80;36.20
19214;DHT22;9741;51.020;5.304;2022-07-23T10:57:03;30.60;35.90
19214;DHT22;9741;51.020;5.304;2022-07-23T11:02:38;30.30;35.60
19214;DHT22;9741;51.020;5.304;2022-07-23T11:05:07;30.10;36.00
19214;DHT22;9741;51.020;5.304;2022-07-23T11:07:36;30.00;36.20
19214;DHT22;9741;51.020;5.304;2022-07-23T11:10:04;29.90;36.10
19214;DHT22;9741;51.020;5.304;2022-07-23T11:12:34;29.90;36.30
19214;DHT22;9741;51.020;5.304;2022-07-23T11:15:05;29.90;36.20
19214;DHT22;9741;51.020;5.304;2022-07-23T11:17:34;29.80;36.20
19214;DHT22;9741;51.020;5.304;2022-07-23T11:20:20;29.80;36.50
19214;DHT22;9741;51.020;5.304;2022-07-23T11:22:50;29.80;36.60
19214;DHT22;9741;51.020;5.304;2022-07-23T11:25:33;29.80;36.50
19214;DHT22;9741;51.020;5.304;2022-07-23T11:28:14;29.80;36.20
19214;DHT22;9741;51.020;5.304;2022-07-23T11:30:44;29.90;36.20
19214;DHT22;9741;51.020;5.304;2022-07-23T11:33:19;29.90;36.40
19214;DHT22;9741;51.020;5.304;2022-07-23T11:35:49;29.80;35.60
19214;DHT22;9741;51.020;5.304;2022-07-23T11:38:18;29.80;35.40
19214;DHT22;9741;51.020;5.304;2022-07-23T11:40:47;29.60;35.00
19214;DHT22;9741;51.020;5.304;2022-07-23T11:43:18;29.50;35.00
19214;DHT22;9741;51.020;5.304;2022-07-23T11:45:47;29.40;35.00
19214;DHT22;9741;51.020;5.304;2022-07-23T11:48:19;29.40;35.00
19214;DHT22;9741;51.020;5.304;2022-07-23T11:50:46;29.40;35.60
19214;DHT22;9741;51.020;5.304;2022-07-23T11:53:13;29.40;35.40
19214;DHT22;9741;51.020;5.304;2022-07-23T11:55:42;29.40;35.30
19214;DHT22;9741;51.020;5.304;2022-07-23T11:58:10;29.30;35.70
19214;DHT22;9741;51.020;5.304;2022-07-23T12:00:41;29.20;35.60
19214;DHT22;9741;51.020;5.304;2022-07-23T12:03:09;29.10;35.70
19214;DHT22;9741;51.020;5.304;2022-07-23T12:05:38;29.10;35.90
19214;DHT22;9741;51.020;5.304;2022-07-23T12:08:07;29.10;35.60
19214;DHT22;9741;51.020;5.304;2022-07-23T12:10:35;29.00;35.80
19214;DHT22;9741;51.020;5.304;2022-07-23T12:13:05;29.00;35.70
19214;DHT22;9741;51.020;5.304;2022-07-23T12:15:34;29.00;35.40
19214;DHT22;9741;51.020;5.304;2022-07-23T12:18:06;29.00;35.40
19214;DHT22;9741;51.020;5.304;2022-07-23T12:20:36;29.00;35.40
19214;DHT22;9741;51.020;5.304;2022-07-23T12:23:06;28.90;35.60
19214;DHT22;9741;51.020;5.304;2022-07-23T12:25:35;28.80;35.70
19214;DHT22;9741;51.020;5.304;2022-07-23T12:28:05;28.70;35.90
19214;DHT22;9741;51.020;5.304;2022-07-23T12:30:36;28.60;35.70
19214;DHT22;9741;51.020;5.304;2022-07-23T12:33:06;28.60;35.80
19214;DHT22;9741;51.020;5.304;2022-07-23T12:35:36;28.50;35.90
19214;DHT22;9741;51.020;5.304;2022-07-23T12:38:06;28.50;35.90
19214;DHT22;9741;51.020;5.304;2022-07-23T12:40:34;28.40;36.10
19214;DHT22;9741;51.020;5.304;2022-07-23T12:43:04;28.30;36.00
19214;DHT22;9741;51.020;5.304;2022-07-23T12:45:47;28.30;35.80
19214;DHT22;9741;51.020;5.304;2022-07-23T12:48:24;28.20;35.50
19214;DHT22;9741;51.020;5.304;2022-07-23T12:50:57;28.20;35.50
19214;DHT22;9741;51.020;5.304;2022-07-23T12:53:27;28.20;35.70
19214;DHT22;9741;51.020;5.304;2022-07-23T12:56:04;28.30;35.90
19214;DHT22;9741;51.020;5.304;2022-07-23T12:58:43;28.30;35.70
19214;DHT22;9741;51.020;5.304;2022-07-23T13:01:22;28.40;36.20
19214;DHT22;9741;51.020;5.304;2022-07-23T13:03:57;28.50;36.80
19214;DHT22;9741;51.020;5.304;2022-07-23T13:06:25;28.50;36.50
19214;DHT22;9741;51.020;5.304;2022-07-23T13:08:52;28.60;36.50
19214;DHT22;9741;51.020;5.304;2022-07-23T13:11:19;28.60;36.70
19214;DHT22;9741;51.020;5.304;2022-07-23T13:13:47;28.70;36.30
19214;DHT22;9741;51.020;5.304;2022-07-23T13:16:14;28.80;36.40
19214;DHT22;9741;51.020;5.304;2022-07-23T13:18:41;28.80;36.20
19214;DHT22;9741;51.020;5.304;2022-07-23T13:21:10;28.90;36.40
19214;DHT22;9741;51.020;5.304;2022-07-23T13:23:37;28.90;36.30
19214;DHT22;9741;51.020;5.304;2022-07-23T13:26:04;28.90;36.30
19214;DHT22;9741;51.020;5.304;2022-07-23T13:28:31;28.90;36.30
19214;DHT22;9741;51.020;5.304;2022-07-23T13:30:58;28.90;36.00
19214;DHT22;9741;51.020;5.304;2022-07-23T13:33:26;28.90;35.70
19214;DHT22;9741;51.020;5.304;2022-07-23T13:35:53;28.90;36.00
19214;DHT22;9741;51.020;5.304;2022-07-23T13:38:22;28.90;35.90
19214;DHT22;9741;51.020;5.304;2022-07-23T13:40:52;28.90;35.60
19214;DHT22;9741;51.020;5.304;2022-07-23T13:43:21;28.90;35.70
19214;DHT22;9741;51.020;5.304;2022-07-23T13:45:49;28.90;35.70
19214;DHT22;9741;51.020;5.304;2022-07-23T13:48:17;28.90;35.80
19214;DHT22;9741;51.020;5.304;2022-07-23T13:50:45;28.90;36.30
19214;DHT22;9741;51.020;5.304;2022-07-23T13:53:15;28.90;36.00
19214;DHT22;9741;51.020;5.304;2022-07-23T13:55:45;29.00;36.30
19214;DHT22;9741;51.020;5.304;2022-07-23T13:58:13;29.00;36.00
19214;DHT22;9741;51.020;5.304;2022-07-23T14:00:42;29.10;36.10
19214;DHT22;9741;51.020;5.304;2022-07-23T14:03:10;29.20;36.40
19214;DHT22;9741;51.020;5.304;2022-07-23T14:05:38;29.20;36.50
19214;DHT22;9741;51.020;5.304;2022-07-23T14:08:06;29.30;36.40
19214;DHT22;9741;51.020;5.304;2022-07-23T14:10:33;29.40;36.60
19214;DHT22;9741;51.020;5.304;2022-07-23T14:13:02;29.50;36.80
19214;DHT22;9741;51.020;5.304;2022-07-23T14:15:31;29.50;36.80
19214;DHT22;9741;51.020;5.304;2022-07-23T14:17:58;29.60;36.70
19214;DHT22;9741;51.020;5.304;2022-07-23T14:20:26;29.60;36.70
19214;DHT22;9741;51.020;5.304;2022-07-23T14:22:53;29.60;36.60
19214;DHT22;9741;51.020;5.304;2022-07-23T14:25:21;29.70;36.60
19214;DHT22;9741;51.020;5.304;2022-07-23T14:27:48;29.70;36.80
19214;DHT22;9741;51.020;5.304;2022-07-23T14:30:17;29.80;36.80
19214;DHT22;9741;51.020;5.304;2022-07-23T14:32:44;29.80;36.40
19214;DHT22;9741;51.020;5.304;2022-07-23T14:35:11;29.90;36.30
19214;DHT22;9741;51.020;5.304;2022-07-23T14:37:39;30.00;36.30
19214;DHT22;9741;51.020;5.304;2022-07-23T14:40:07;30.00;36.60
19214;DHT22;9741;51.020;5.304;2022-07-23T14:42:34;30.00;36.30
19214;DHT22;9741;51.020;5.304;2022-07-23T14:45:02;30.00;36.10
19214;DHT22;9741;51.020;5.304;2022-07-23T14:47:32;30.00;36.00
19214;DHT22;9741;51.020;5.304;2022-07-23T14:50:00;30.00;36.10
19214;DHT22;9741;51.020;5.304;2022-07-23T14:52:27;30.10;36.30
19214;DHT22;9741;51.020;5.304;2022-07-23T14:54:55;30.10;36.20
19214;DHT22;9741;51.020;5.304;2022-07-23T14:57:23;30.30;36.50
19214;DHT22;9741;51.020;5.304;2022-07-23T14:59:50;30.30;36.60
19214;DHT22;9741;51.020;5.304;2022-07-23T15:02:17;30.30;35.60
19214;DHT22;9741;51.020;5.304;2022-07-23T15:04:45;30.30;35.70
19214;DHT22;9741;51.020;5.304;2022-07-23T15:07:13;30.30;35.60
19214;DHT22;9741;51.020;5.304;2022-07-23T15:09:41;30.40;35.60
19214;DHT22;9741;51.020;5.304;2022-07-23T15:12:09;30.30;35.50
19214;DHT22;9741;51.020;5.304;2022-07-23T15:14:39;30.30;35.30
19214;DHT22;9741;51.020;5.304;2022-07-23T15:17:06;30.40;35.30
19214;DHT22;9741;51.020;5.304;2022-07-23T15:19:33;30.30;35.40
19214;DHT22;9741;51.020;5.304;2022-07-23T15:22:03;30.30;35.50
19214;DHT22;9741;51.020;5.304;2022-07-23T15:24:30;30.30;35.50
19214;DHT22;9741;51.020;5.304;2022-07-23T15:26:58;30.30;35.60
19214;DHT22;9741;51.020;5.304;2022-07-23T15:29:25;30.30;35.70
19214;DHT22;9741;51.020;5.304;2022-07-23T15:31:52;30.20;35.80
19214;DHT22;9741;51.020;5.304;2022-07-23T15:34:19;30.20;35.90
19214;DHT22;9741;51.020;5.304;2022-07-23T15:36:46;30.10;35.50
19214;DHT22;9741;51.020;5.304;2022-07-23T15:39:16;30.10;35.30
19214;DHT22;9741;51.020;5.304;2022-07-23T15:41:43;30.10;35.20
19214;DHT22;9741;51.020;5.304;2022-07-23T15:44:10;30.00;35.20
19214;DHT22;9741;51.020;5.304;2022-07-23T15:46:37;30.00;35.50
19214;DHT22;9741;51.020;5.304;2022-07-23T15:49:05;30.00;35.50
19214;DHT22;9741;51.020;5.304;2022-07-23T15:51:32;30.00;36.10
19214;DHT22;9741;51.020;5.304;2022-07-23T15:53:59;30.00;35.60
19214;DHT22;9741;51.020;5.304;2022-07-23T15:56:27;30.00;35.50
19214;DHT22;9741;51.020;5.304;2022-07-23T15:58:55;30.00;35.40
19214;DHT22;9741;51.020;5.304;2022-07-23T16:01:22;30.00;36.30